createdAt,value
2019-03-20T00:00:39.035Z,89.20
2019-03-20T00:03:23.689Z,85.60
2019-03-20T00:11:42.579Z,88.30
2019-03-20T00:14:09.322Z,87.30
2019-03-20T00:16:36.131Z,88.90
2019-03-20T00:19:04.820Z,89.20
2019-03-20T00:21:33.446Z,87.60
2019-03-20T00:24:00.674Z,87.70
2019-03-20T00:26:27.379Z,86.30
2019-03-20T00:28:54.450Z,87.10
2019-03-20T00:31:24.309Z,85.50
2019-03-20T00:33:51.241Z,86.00
2019-03-20T00:36:18.028Z,85.20
2019-03-20T00:38:44.958Z,84.80
2019-03-20T00:41:11.637Z,86.30
2019-03-20T00:43:38.355Z,85.50
2019-03-20T00:46:05.146Z,86.50
2019-03-20T00:48:31.797Z,87.80
2019-03-20T00:50:58.578Z,87.00
2019-03-20T00:53:25.330Z,86.70
2019-03-20T00:55:52.186Z,87.60
2019-03-20T00:58:19.215Z,88.50
2019-03-20T01:00:46.899Z,88.20
2019-03-20T01:03:13.709Z,87.90
2019-03-20T01:05:40.557Z,86.00
2019-03-20T01:08:07.467Z,86.80
2019-03-20T01:10:34.431Z,87.50
2019-03-20T01:13:01.057Z,85.90
2019-03-20T01:15:27.751Z,87.40
2019-03-20T01:17:54.704Z,87.80
2019-03-20T01:20:23.009Z,88.40
2019-03-20T01:22:50.034Z,87.70
2019-03-20T01:25:19.066Z,87.10
2019-03-20T01:27:45.857Z,85.10
2019-03-20T01:30:37.984Z,87.80
2019-03-20T01:33:12.751Z,89.90
2019-03-20T01:35:40.007Z,86.70
2019-03-20T01:38:10.130Z,87.70
2019-03-20T01:40:40.320Z,85.80
2019-03-20T01:43:06.843Z,87.70
2019-03-20T01:45:33.754Z,86.10
2019-03-20T01:48:00.844Z,85.40
2019-03-20T01:50:27.638Z,88.20
2019-03-20T01:52:54.474Z,84.20
2019-03-20T01:55:21.295Z,85.00
2019-03-20T01:57:47.991Z,86.00
2019-03-20T02:00:14.952Z,84.30
2019-03-20T02:02:41.967Z,87.60
2019-03-20T02:05:09.979Z,86.90
2019-03-20T02:07:36.999Z,88.50
2019-03-20T02:10:10.501Z,86.90
2019-03-20T02:12:37.309Z,90.20
2019-03-20T02:15:07.739Z,90.60
2019-03-20T02:17:34.659Z,90.30
2019-03-20T02:20:02.095Z,91.20
2019-03-20T02:22:28.625Z,91.20
2019-03-20T02:24:55.130Z,91.10
2019-03-20T02:27:21.768Z,90.30
2019-03-20T02:29:48.262Z,91.00
2019-03-20T02:32:14.755Z,91.00
2019-03-20T02:34:41.322Z,91.00
2019-03-20T02:37:07.911Z,91.10
2019-03-20T02:39:34.399Z,91.30
2019-03-20T02:42:01.000Z,90.90
2019-03-20T02:44:27.687Z,91.40
2019-03-20T02:46:54.292Z,90.00
2019-03-20T02:49:20.905Z,90.30
2019-03-20T02:51:47.499Z,90.90
2019-03-20T02:54:14.233Z,85.70
2019-03-20T02:56:40.858Z,86.00
2019-03-20T02:59:07.327Z,86.90
2019-03-20T03:01:35.175Z,89.10
2019-03-20T03:04:01.750Z,89.20
2019-03-20T03:06:28.543Z,88.50
2019-03-20T03:08:55.008Z,85.70
2019-03-20T03:11:21.897Z,86.70
2019-03-20T03:13:48.567Z,90.00
2019-03-20T03:16:15.248Z,90.50
2019-03-20T03:18:42.101Z,89.00
2019-03-20T03:21:09.027Z,89.90
2019-03-20T03:23:35.644Z,90.50
2019-03-20T03:26:02.367Z,91.20
2019-03-20T03:28:29.210Z,92.00
2019-03-20T03:30:56.094Z,92.50
2019-03-20T03:33:22.931Z,92.10
2019-03-20T03:35:49.527Z,92.20
2019-03-20T03:38:16.085Z,91.70
2019-03-20T03:40:42.993Z,91.70
2019-03-20T03:43:09.714Z,91.40
2019-03-20T03:45:36.570Z,91.40
2019-03-20T03:48:03.422Z,91.80
2019-03-20T03:50:30.292Z,92.20
2019-03-20T03:52:57.135Z,91.20
2019-03-20T03:55:24.098Z,91.30
2019-03-20T03:57:51.164Z,91.60
2019-03-20T04:00:18.962Z,91.80
2019-03-20T04:02:45.915Z,92.40
2019-03-20T04:05:13.263Z,92.20
2019-03-20T04:07:40.157Z,92.80
2019-03-20T04:10:09.913Z,92.50
2019-03-20T04:12:36.763Z,93.00
2019-03-20T04:15:06.220Z,92.20
2019-03-20T04:17:32.979Z,92.20
2019-03-20T04:19:59.729Z,92.40
2019-03-20T04:22:26.528Z,92.80
2019-03-20T04:24:53.400Z,93.20
2019-03-20T04:27:20.253Z,93.30
2019-03-20T04:29:46.883Z,93.40
2019-03-20T04:32:13.764Z,92.80
2019-03-20T04:34:40.315Z,92.40
2019-03-20T04:37:07.085Z,92.80
2019-03-20T04:39:33.736Z,92.40
2019-03-20T04:42:00.425Z,92.30
2019-03-20T04:44:27.062Z,91.90
2019-03-20T04:46:53.848Z,92.00
2019-03-20T04:49:20.438Z,91.80
2019-03-20T04:51:47.089Z,91.40
2019-03-20T04:54:13.668Z,91.10
2019-03-20T04:56:40.153Z,90.80
2019-03-20T04:59:06.656Z,90.60
2019-03-20T05:01:33.146Z,92.20
2019-03-20T05:03:59.643Z,92.20
2019-03-20T05:06:26.115Z,92.00
2019-03-20T05:08:54.722Z,92.00
2019-03-20T05:11:21.251Z,92.50
2019-03-20T05:13:48.092Z,92.50
2019-03-20T05:16:16.066Z,92.50
2019-03-20T05:18:43.539Z,92.10
2019-03-20T05:21:10.119Z,92.20
2019-03-20T05:23:36.801Z,92.80
2019-03-20T05:26:05.142Z,92.10
2019-03-20T05:28:31.663Z,92.20
2019-03-20T05:30:58.367Z,92.00
2019-03-20T05:33:25.020Z,91.80
2019-03-20T05:35:51.504Z,92.00
2019-03-20T05:38:18.123Z,92.30
2019-03-20T05:40:44.682Z,92.50
2019-03-20T05:43:11.517Z,92.20
2019-03-20T05:45:38.596Z,92.30
2019-03-20T05:48:05.511Z,92.20
2019-03-20T05:50:32.476Z,92.30
2019-03-20T05:52:59.355Z,92.10
2019-03-20T05:55:26.128Z,92.10
2019-03-20T05:57:52.771Z,91.90
2019-03-20T06:00:21.162Z,91.80
2019-03-20T06:02:48.052Z,92.10
2019-03-20T06:05:14.854Z,92.30
2019-03-20T06:07:41.503Z,92.10
2019-03-20T06:10:10.633Z,92.40
2019-03-20T06:12:37.456Z,90.50
2019-03-20T06:15:05.224Z,90.60
2019-03-20T06:17:32.001Z,88.90
2019-03-20T06:19:58.695Z,85.80
2019-03-20T06:22:25.367Z,85.70
2019-03-20T06:24:52.217Z,82.60
2019-03-20T06:27:18.966Z,83.50
2019-03-20T06:29:45.640Z,86.00
2019-03-20T06:32:12.105Z,81.80
2019-03-20T06:34:39.689Z,82.20
2019-03-20T06:37:06.264Z,79.30
2019-03-20T06:39:32.888Z,83.30
2019-03-20T06:41:59.499Z,76.60
2019-03-20T06:44:26.015Z,77.50
2019-03-20T06:46:52.574Z,78.20
2019-03-20T06:49:19.137Z,77.20
2019-03-20T06:51:45.918Z,78.00
2019-03-20T06:54:12.524Z,76.20
2019-03-20T06:56:39.258Z,71.10
2019-03-20T06:59:30.101Z,73.20
2019-03-20T07:01:58.558Z,71.50
2019-03-20T07:04:43.724Z,69.50
2019-03-20T07:07:22.635Z,70.30
2019-03-20T07:09:53.086Z,69.20
2019-03-20T07:12:19.675Z,65.70
2019-03-20T07:14:46.408Z,66.80
2019-03-20T07:17:13.225Z,66.90
2019-03-20T07:19:39.966Z,68.80
2019-03-20T07:22:06.782Z,65.30
2019-03-20T07:24:33.442Z,62.40
2019-03-20T07:27:00.215Z,66.30
2019-03-20T07:29:26.901Z,61.30
2019-03-20T07:31:53.503Z,65.30
2019-03-20T07:34:20.107Z,62.10
2019-03-20T07:36:47.035Z,64.80
2019-03-20T07:39:13.598Z,63.20
2019-03-20T07:41:40.292Z,63.90
2019-03-20T07:44:06.866Z,59.40
2019-03-20T07:46:33.549Z,60.00
2019-03-20T07:49:00.143Z,57.70
2019-03-20T07:51:26.669Z,58.90
2019-03-20T07:53:53.166Z,58.10
2019-03-20T07:56:19.829Z,56.00
2019-03-20T07:58:46.489Z,60.20
2019-03-20T08:01:13.216Z,59.10
2019-03-20T08:03:39.831Z,59.00
2019-03-20T08:06:06.422Z,57.80
2019-03-20T08:08:33.244Z,58.90
2019-03-20T08:10:59.882Z,56.40
2019-03-20T08:13:27.671Z,53.40
2019-03-20T08:15:54.352Z,56.40
2019-03-20T08:18:20.973Z,57.10
2019-03-20T08:20:47.807Z,58.00
2019-03-20T08:23:14.563Z,58.30
2019-03-20T08:25:41.091Z,55.90
2019-03-20T08:28:07.750Z,55.00
2019-03-20T08:30:34.691Z,56.70
2019-03-20T08:33:01.322Z,56.60
2019-03-20T08:35:28.026Z,53.50
2019-03-20T08:37:54.823Z,52.80
2019-03-20T08:40:21.461Z,52.40
2019-03-20T08:49:15.124Z,52.60
2019-03-20T09:01:06.439Z,53.90
2019-03-20T09:03:32.870Z,55.10
2019-03-20T09:05:59.416Z,54.30
2019-03-20T09:08:29.612Z,51.50
2019-03-20T09:10:54.196Z,47.60
2019-03-20T09:13:20.645Z,52.40
2019-03-20T09:15:47.163Z,47.70
2019-03-20T09:18:13.562Z,46.90
2019-03-20T09:20:39.993Z,49.20
2019-03-20T09:23:06.436Z,48.00
2019-03-20T09:25:32.885Z,50.70
2019-03-20T09:28:00.436Z,49.20
2019-03-20T09:30:28.493Z,47.80
2019-03-20T09:32:56.117Z,47.50
2019-03-20T09:35:22.754Z,50.50
2019-03-20T09:37:52.245Z,47.80
2019-03-20T09:40:20.126Z,49.60
2019-03-20T09:42:46.561Z,46.70
2019-03-20T09:45:15.615Z,48.90
2019-03-20T09:47:42.720Z,50.90
2019-03-20T09:50:11.390Z,46.70
2019-03-20T09:52:38.829Z,47.90
2019-03-20T09:55:07.856Z,48.80
2019-03-20T09:57:34.405Z,49.50
2019-03-20T10:00:00.842Z,50.60
2019-03-20T10:02:27.295Z,49.20
2019-03-20T10:04:53.790Z,49.10
2019-03-20T10:07:20.239Z,47.50
2019-03-20T10:09:46.723Z,48.10
2019-03-20T10:12:13.226Z,46.20
2019-03-20T10:14:39.679Z,45.80
2019-03-20T10:17:06.124Z,46.60
2019-03-20T10:19:32.602Z,44.20
2019-03-20T10:21:59.071Z,45.50
2019-03-20T10:24:25.507Z,47.00
2019-03-20T10:26:51.938Z,45.50
2019-03-20T10:29:18.442Z,47.70
2019-03-20T10:31:44.898Z,45.10
2019-03-20T10:34:11.380Z,44.10
2019-03-20T10:36:37.834Z,44.70
2019-03-20T10:39:06.804Z,43.00
2019-03-20T10:41:33.417Z,41.80
2019-03-20T10:43:59.845Z,43.50
2019-03-20T10:46:26.312Z,45.00
2019-03-20T10:48:52.747Z,41.00
2019-03-20T10:51:19.220Z,43.00
2019-03-20T10:53:45.639Z,45.90
2019-03-20T10:56:12.104Z,42.10
2019-03-20T10:58:38.533Z,42.40
2019-03-20T11:01:05.002Z,43.20
2019-03-20T11:03:31.656Z,42.20
2019-03-20T11:05:58.114Z,41.10
2019-03-20T11:08:24.709Z,42.30
2019-03-20T11:10:51.264Z,42.20
2019-03-20T11:13:17.731Z,41.10
2019-03-20T11:15:44.195Z,41.80
2019-03-20T11:18:10.649Z,39.70
2019-03-20T11:20:37.213Z,40.40
2019-03-20T11:23:03.850Z,40.20
2019-03-20T11:25:30.706Z,40.90
2019-03-20T11:27:57.410Z,38.80
2019-03-20T11:30:29.250Z,37.00
2019-03-20T11:32:56.096Z,38.40
2019-03-20T11:35:22.777Z,40.20
2019-03-20T11:37:49.590Z,39.10
2019-03-20T11:40:35.263Z,40.60
2019-03-20T11:43:06.024Z,41.50
2019-03-20T11:45:38.349Z,39.30
2019-03-20T11:48:06.807Z,39.30
2019-03-20T11:50:37.551Z,39.70
2019-03-20T11:53:06.689Z,38.70
2019-03-20T11:55:33.396Z,33.10
2019-03-20T11:58:00.578Z,39.30
2019-03-20T12:00:27.437Z,39.90
2019-03-20T12:02:56.006Z,33.40
2019-03-20T12:05:25.646Z,35.90
2019-03-20T12:07:54.218Z,37.80
2019-03-20T12:10:26.259Z,40.20
2019-03-20T12:12:52.975Z,35.30
2019-03-20T12:15:19.827Z,40.50
2019-03-20T12:17:46.814Z,40.50
2019-03-20T12:20:19.988Z,35.00
2019-03-20T12:22:47.641Z,39.20
2019-03-20T12:25:19.263Z,37.30
2019-03-20T12:27:47.205Z,35.30
2019-03-20T12:30:32.632Z,34.20
2019-03-20T12:36:08.589Z,34.90
2019-03-20T12:38:36.227Z,37.60
2019-03-20T12:41:02.959Z,35.50
2019-03-20T12:43:29.560Z,37.90
2019-03-20T12:45:56.028Z,37.20
2019-03-20T12:48:22.690Z,34.30
2019-03-20T12:50:49.309Z,33.60
2019-03-20T12:53:24.755Z,35.50
2019-03-20T12:55:51.725Z,36.50
2019-03-20T12:58:18.579Z,39.40
2019-03-20T13:05:37.957Z,40.00
2019-03-20T13:08:06.108Z,35.50
2019-03-20T13:10:33.443Z,36.40
2019-03-20T13:13:00.317Z,34.50
2019-03-20T13:15:27.700Z,36.00
2019-03-20T13:17:55.226Z,35.10
2019-03-20T13:20:22.195Z,36.80
2019-03-20T13:23:00.562Z,35.30
2019-03-20T13:25:27.348Z,39.50
2019-03-20T13:27:54.180Z,38.50
2019-03-20T13:30:39.587Z,38.90
2019-03-20T13:33:06.317Z,37.80
2019-03-20T13:35:33.130Z,36.30
2019-03-20T13:38:02.304Z,36.10
2019-03-20T13:40:35.622Z,33.80
2019-03-20T13:43:04.822Z,36.80
2019-03-20T13:45:31.755Z,34.30
2019-03-20T13:47:59.403Z,30.90
2019-03-20T13:50:26.090Z,34.50
2019-03-20T13:52:53.816Z,36.50
2019-03-20T13:55:20.640Z,40.40
2019-03-20T13:57:47.378Z,37.80
2019-03-20T14:00:23.823Z,39.70
2019-03-20T14:02:50.648Z,37.80
2019-03-20T14:05:17.481Z,35.50
2019-03-20T14:07:44.293Z,34.00
2019-03-20T14:10:24.515Z,32.90
2019-03-20T14:12:45.460Z,32.30
2019-03-20T14:15:13.755Z,34.40
2019-03-20T14:17:40.466Z,33.10
2019-03-20T14:20:12.336Z,31.50
2019-03-20T14:22:39.141Z,34.40
2019-03-20T14:25:08.517Z,35.30
2019-03-20T14:27:35.386Z,39.30
2019-03-20T14:30:28.391Z,37.30
2019-03-20T14:33:14.012Z,38.50
2019-03-20T14:38:38.082Z,41.20
2019-03-20T14:41:06.705Z,36.30
2019-03-20T14:43:33.344Z,34.50
2019-03-20T14:46:02.640Z,35.50
2019-03-20T14:48:31.874Z,35.80
2019-03-20T14:51:19.154Z,36.40
2019-03-20T14:53:49.240Z,33.50
2019-03-20T14:56:17.378Z,32.20
2019-03-20T14:58:44.964Z,34.00
2019-03-20T15:01:14.542Z,34.40
2019-03-20T15:03:42.177Z,30.30
2019-03-20T15:06:08.675Z,33.70
2019-03-20T15:08:35.391Z,28.90
2019-03-20T15:11:02.017Z,30.00
2019-03-20T15:13:29.588Z,30.20
2019-03-20T15:16:03.053Z,34.00
2019-03-20T15:18:29.642Z,30.40
2019-03-20T15:20:56.349Z,29.90
2019-03-20T15:23:22.805Z,34.50
2019-03-20T15:25:49.268Z,30.70
2019-03-20T15:28:16.144Z,29.80
2019-03-20T15:30:42.591Z,30.90
2019-03-20T15:33:11.305Z,30.10
2019-03-20T15:35:39.088Z,29.10
2019-03-20T15:38:05.672Z,29.70
2019-03-20T15:40:32.365Z,32.90
2019-03-20T15:42:59.077Z,37.70
2019-03-20T15:45:29.996Z,36.50
2019-03-20T15:47:58.054Z,36.50
2019-03-20T15:50:43.141Z,37.20
2019-03-20T15:53:14.914Z,39.10
2019-03-20T15:56:06.952Z,38.80
2019-03-20T15:58:34.636Z,39.70
2019-03-20T16:01:01.184Z,39.50
2019-03-20T16:03:34.458Z,40.00
2019-03-20T16:06:01.067Z,39.00
2019-03-20T16:08:27.733Z,39.20
2019-03-20T16:10:54.190Z,39.80
2019-03-20T16:13:20.831Z,41.80
2019-03-20T16:15:47.502Z,41.10
2019-03-20T16:18:14.051Z,41.80
2019-03-20T16:20:40.504Z,41.40
2019-03-20T16:23:07.923Z,40.30
2019-03-20T16:25:34.564Z,42.80
2019-03-20T16:28:01.136Z,42.80
2019-03-20T16:30:31.250Z,46.70
2019-03-20T16:32:57.685Z,47.70
2019-03-20T16:35:24.280Z,46.80
2019-03-20T16:37:50.869Z,44.90
2019-03-20T16:40:23.206Z,45.80
2019-03-20T16:42:49.755Z,47.50
2019-03-20T16:45:21.649Z,50.40
2019-03-20T16:47:48.121Z,45.90
2019-03-20T16:50:16.104Z,45.30
2019-03-20T16:52:42.762Z,44.00
2019-03-20T16:55:11.484Z,45.00
2019-03-20T16:57:37.956Z,44.40
2019-03-20T17:00:11.093Z,44.70
2019-03-20T17:02:37.639Z,45.40
2019-03-20T17:05:05.034Z,46.40
2019-03-20T17:07:31.582Z,45.60
2019-03-20T17:09:58.108Z,48.80
2019-03-20T17:12:24.670Z,47.20
2019-03-20T17:14:51.171Z,48.10
2019-03-20T17:17:18.692Z,47.70
2019-03-20T17:19:45.168Z,48.60
2019-03-20T17:22:11.614Z,46.00
2019-03-20T17:24:38.066Z,46.80
2019-03-20T17:27:04.550Z,45.90
2019-03-20T17:29:31.031Z,46.80
2019-03-20T17:31:57.674Z,49.00
2019-03-20T17:34:24.152Z,51.10
2019-03-20T17:36:51.415Z,49.50
2019-03-20T17:39:17.874Z,49.30
2019-03-20T17:41:44.525Z,47.00
2019-03-20T17:44:11.035Z,48.40
2019-03-20T17:46:37.496Z,47.20
2019-03-20T17:49:04.225Z,47.00
2019-03-20T17:51:30.697Z,47.70
2019-03-20T17:53:57.130Z,48.80
2019-03-20T17:56:23.951Z,48.80
2019-03-20T17:58:50.391Z,51.80
2019-03-20T18:01:21.431Z,50.40
2019-03-20T18:03:47.979Z,52.10
2019-03-20T18:06:15.017Z,52.20
2019-03-20T18:17:52.304Z,54.70
2019-03-20T18:20:19.791Z,54.70
2019-03-20T18:22:46.359Z,52.50
2019-03-20T18:25:13.042Z,55.90
2019-03-20T18:27:39.592Z,56.40
2019-03-20T18:30:18.044Z,55.80
2019-03-20T18:32:44.570Z,55.90
2019-03-20T18:35:11.229Z,56.20
2019-03-20T18:37:37.714Z,57.50
2019-03-20T18:40:07.783Z,55.20
2019-03-20T18:42:34.236Z,57.50
2019-03-20T18:45:00.757Z,56.00
2019-03-20T18:47:27.195Z,54.20
2019-03-20T18:49:53.817Z,54.40
2019-03-20T18:52:20.344Z,55.10
2019-03-20T18:54:46.883Z,56.70
2019-03-20T18:57:15.518Z,55.50
2019-03-20T18:59:42.277Z,57.20
2019-03-20T19:02:08.856Z,59.10
2019-03-20T19:04:35.441Z,55.90
2019-03-20T19:07:02.139Z,55.10
2019-03-20T19:09:28.620Z,58.20
2019-03-20T19:11:55.109Z,54.50
2019-03-20T19:14:21.581Z,54.30
2019-03-20T19:16:48.143Z,54.60
2019-03-20T19:19:14.652Z,56.40
2019-03-20T19:21:41.223Z,59.00
2019-03-20T19:24:07.670Z,57.70
2019-03-20T19:26:34.359Z,59.90
2019-03-20T19:29:00.827Z,60.30
2019-03-20T19:31:27.306Z,59.80
2019-03-20T19:33:53.884Z,60.20
2019-03-20T19:36:20.442Z,56.70
2019-03-20T19:38:47.017Z,57.00
2019-03-20T19:41:13.468Z,57.60
2019-03-20T19:43:40.196Z,57.50
2019-03-20T19:46:09.582Z,59.70
2019-03-20T19:48:36.042Z,57.60
2019-03-20T19:51:02.734Z,59.30
2019-03-20T19:53:29.515Z,55.90
2019-03-20T19:55:56.114Z,60.80
2019-03-20T19:58:22.775Z,58.90
2019-03-20T20:00:49.520Z,60.10
2019-03-20T20:03:16.249Z,63.10
2019-03-20T20:05:42.894Z,63.00
2019-03-20T20:08:09.945Z,63.70
2019-03-20T20:10:36.395Z,60.10
2019-03-20T20:13:03.065Z,65.20
2019-03-20T20:15:31.630Z,66.10
2019-03-20T20:17:58.117Z,62.80
2019-03-20T20:20:27.375Z,63.10
2019-03-20T20:22:53.845Z,65.10
2019-03-20T20:25:20.293Z,63.50
2019-03-20T20:27:46.857Z,64.60
2019-03-20T20:30:17.944Z,62.50
2019-03-20T20:32:44.812Z,65.70
2019-03-20T20:35:13.020Z,62.50
2019-03-20T20:37:39.651Z,64.00
2019-03-20T20:40:11.391Z,63.30
2019-03-20T20:42:42.830Z,60.70
2019-03-20T20:45:08.038Z,60.40
2019-03-20T20:47:34.482Z,61.10
2019-03-20T20:50:01.061Z,62.40
2019-03-20T20:52:27.500Z,66.50
2019-03-20T20:54:53.925Z,67.80
2019-03-20T20:57:20.424Z,67.30
2019-03-20T20:59:47.061Z,68.60
2019-03-20T21:02:13.505Z,68.60
2019-03-20T21:04:39.976Z,69.00
2019-03-20T21:07:06.401Z,67.10
2019-03-20T21:09:32.840Z,69.10
2019-03-20T21:11:59.565Z,67.50
2019-03-20T21:14:25.998Z,68.70
2019-03-20T21:16:52.450Z,68.20
2019-03-20T21:19:35.895Z,65.70
2019-03-20T21:22:30.133Z,66.50
2019-03-20T21:24:56.611Z,63.30
2019-03-20T21:27:49.290Z,61.60
2019-03-20T21:30:31.660Z,62.50
2019-03-20T21:33:04.728Z,64.40
2019-03-20T21:36:08.002Z,62.20
2019-03-20T21:38:34.430Z,62.10
2019-03-20T21:41:19.877Z,62.60
2019-03-20T21:44:23.425Z,62.00
2019-03-20T21:46:53.673Z,64.10
2019-03-20T21:49:20.134Z,60.50
2019-03-20T21:51:46.581Z,62.40
2019-03-20T21:54:42.631Z,59.00
2019-03-20T21:57:22.003Z,58.50
2019-03-20T22:00:14.801Z,58.30
2019-03-20T22:02:43.322Z,58.80
2019-03-20T22:05:23.244Z,57.70
2019-03-20T22:07:47.574Z,58.00
2019-03-20T22:10:21.487Z,58.00
2019-03-20T22:12:54.752Z,57.80
2019-03-20T22:15:37.154Z,57.90
2019-03-20T22:18:25.177Z,57.20
2019-03-20T22:21:04.014Z,57.00
2019-03-20T22:23:55.010Z,59.40
2019-03-20T22:26:28.327Z,58.90
2019-03-20T22:29:21.868Z,60.40
2019-03-20T22:32:03.806Z,60.10
2019-03-20T22:34:50.448Z,59.50
2019-03-20T22:37:16.880Z,63.60
2019-03-20T22:40:13.557Z,63.30
2019-03-20T22:42:46.410Z,65.00
2019-03-20T22:45:37.751Z,64.60
2019-03-20T22:48:14.838Z,65.70
2019-03-20T22:50:46.159Z,65.00
2019-03-20T22:53:42.015Z,65.10
2019-03-20T22:56:28.859Z,64.70
2019-03-20T22:58:55.320Z,64.70
2019-03-20T23:01:31.328Z,64.20
2019-03-20T23:04:01.718Z,64.80
2019-03-20T23:06:28.240Z,66.20
2019-03-20T23:08:55.796Z,65.00
2019-03-20T23:11:22.236Z,65.10
2019-03-20T23:13:48.700Z,66.20
2019-03-20T23:16:18.277Z,66.80
2019-03-20T23:18:44.737Z,65.80
2019-03-20T23:21:11.183Z,64.20
2019-03-20T23:23:37.955Z,64.90
2019-03-20T23:26:04.593Z,65.50
2019-03-20T23:28:31.099Z,64.70
2019-03-20T23:30:57.665Z,65.10
2019-03-20T23:33:24.198Z,64.80
2019-03-20T23:35:50.782Z,64.50
2019-03-20T23:38:17.348Z,64.80
2019-03-20T23:40:43.800Z,64.60
2019-03-20T23:43:11.598Z,62.80
2019-03-20T23:45:38.164Z,62.70
2019-03-20T23:48:20.302Z,62.20
2019-03-20T23:50:50.435Z,62.50
2019-03-20T23:53:17.279Z,62.70
2019-03-20T23:55:43.723Z,60.30
2019-03-20T23:58:10.282Z,60.20
